Terminal Aerodrome Forecast
Issued by NWS Duluth, MN

Home | Current Version | Previous Version | Text Only | Print | Product List | Glossary On
Versions: 1 2 3 4 5 6 7 8 9 10 11 12 13 14 15 16 17 18 19
859
FTUS43 KDLH 150541
TAFDLH
TAF
KDLH 150541Z 1506/1606 26011KT P6SM BKN150
     FM151200 31011KT P6SM OVC025
     FM151400 33012KT P6SM VCSH OVC015
     FM152100 34013G20KT P6SM BKN035=

USA.gov is the U.S. government's official web portal to all federal, state and local government web resources and services.